Time;durP1;ratioP1;P1;durP2;ratioP2;P2;SDS_P1;SDS_P2;PMS_P1;PMS_P2;Temp;Humidity;BMP_temperature;BMP_pressure;BME280_temperature;BME280_humidity;BME280_pressure;Samples;Min_cycle;Max_cycle;Signal;HPM_P1;HPM_P2
2022/09/14 00:02:17;;;;;;;1999.90;999.90;;;19.00;99.90;;;;;;6687715;88;20187;-75
2022/09/14 00:12:18;;;;;;;1999.90;999.90;;;18.90;99.90;;;;;;6662414;87;20183;-76
2022/09/14 00:22:19;;;;;;;1999.90;999.90;;;18.80;99.90;;;;;;6658276;88;20226;-77
2022/09/14 00:32:19;;;;;;;1999.90;999.90;;;18.80;99.90;;;;;;6655260;89;20717;-75
2022/09/14 00:42:20;;;;;;;1999.90;999.90;;;18.80;99.90;;;;;;6655740;88;20238;-77
2022/09/14 00:52:32;;;;;;;1999.90;999.90;;;18.80;99.90;;;;;;6672317;88;20196;-73
2022/09/14 01:02:33;;;;;;;1999.90;999.90;;;18.70;99.90;;;;;;6656255;88;20197;-75
2022/09/14 01:12:43;;;;;;;1999.90;999.90;;;18.90;99.90;;;;;;6669682;88;20226;-75
2022/09/14 01:23:02;;;;;;;1999.90;999.90;;;18.80;99.90;;;;;;6669607;88;20191;-76
2022/09/14 01:33:21;;;;;;;1999.90;999.90;;;18.80;99.90;;;;;;6673232;88;20233;-75
2022/09/14 01:43:32;;;;;;;1999.90;999.90;;;18.70;99.90;;;;;;6683970;88;20190;-75
2022/09/14 01:54:08;;;;;;;1999.90;999.90;;;18.60;99.90;;;;;;6687431;87;20183;-75
2022/09/14 02:04:12;;;;;;;1999.90;999.90;;;18.60;99.90;;;;;;6683531;87;20239;-75
2022/09/14 02:14:13;;;;;;;1999.90;999.90;;;18.50;99.90;;;;;;6674803;88;20646;-76
2022/09/14 02:24:14;;;;;;;1999.90;999.90;;;18.50;99.90;;;;;;6681998;88;20195;-76
2022/09/14 02:34:28;;;;;;;1999.90;999.90;;;18.50;99.90;;;;;;6675252;88;20187;-75
2022/09/14 02:44:51;;;;;;;1999.90;999.90;;;18.50;99.90;;;;;;6675506;88;20750;-74
2022/09/14 02:54:57;;;;;;;1999.90;999.90;;;18.50;99.90;;;;;;6676070;87;20306;-74
2022/09/14 03:04:58;;;;;;;1999.90;999.90;;;18.40;99.90;;;;;;6671350;88;20686;-75
2022/09/14 03:14:58;;;;;;;1999.90;999.90;;;18.40;99.90;;;;;;6655125;89;20328;-76
2022/09/14 03:24:59;;;;;;;1999.90;999.90;;;18.40;99.90;;;;;;6659314;88;20279;-75
2022/09/14 03:35:00;;;;;;;1999.90;999.90;;;18.40;99.90;;;;;;6657082;88;20271;-74
2022/09/14 03:45:00;;;;;;;1999.90;999.90;;;18.50;99.90;;;;;;6668655;88;20256;-75
2022/09/14 03:55:02;;;;;;;1999.90;999.90;;;18.60;99.90;;;;;;6660814;88;20212;-78
2022/09/14 04:05:03;;;;;;;1999.90;999.90;;;18.60;99.90;;;;;;6664562;88;20214;-76
2022/09/14 04:15:05;;;;;;;1999.90;999.90;;;18.50;99.90;;;;;;6670018;88;20310;-75
2022/09/14 04:25:06;;;;;;;1999.90;999.90;;;18.60;99.90;;;;;;6678920;87;20249;-73
2022/09/14 04:35:07;;;;;;;1999.90;999.90;;;18.50;99.90;;;;;;6673741;89;20220;-75
2022/09/14 04:45:08;;;;;;;1999.90;999.90;;;18.50;99.90;;;;;;6678730;88;20201;-76
2022/09/14 04:55:09;;;;;;;1999.90;999.90;;;18.30;99.90;;;;;;6675255;87;20257;-74
2022/09/14 05:05:09;;;;;;;1999.90;999.90;;;18.30;99.90;;;;;;6673242;88;20215;-77
2022/09/14 05:15:10;;;;;;;1999.90;999.90;;;18.30;99.90;;;;;;6672731;87;20269;-73
2022/09/14 05:25:10;;;;;;;1999.90;999.90;;;18.40;99.90;;;;;;6677521;88;20233;-74
2022/09/14 05:35:11;;;;;;;1999.90;999.90;;;18.30;99.90;;;;;;6673203;87;22315;-74
2022/09/14 05:45:12;;;;;;;1999.90;999.90;;;18.30;99.90;;;;;;6675625;88;20205;-74
2022/09/14 05:55:13;;;;;;;1999.90;999.90;;;18.40;99.90;;;;;;6677474;87;20204;-75
2022/09/14 06:05:24;;;;;;;1999.90;999.90;;;18.30;99.90;;;;;;6674218;87;20698;-75
2022/09/14 06:15:24;;;;;;;1999.90;999.90;;;18.30;99.90;;;;;;6649616;89;20180;-76
2022/09/14 06:25:26;;;;;;;1999.90;999.90;;;18.50;99.90;;;;;;6648867;88;20188;-75
2022/09/14 06:35:27;;;;;;;1999.90;999.90;;;18.50;99.90;;;;;;6652791;89;20246;-74
2022/09/14 06:45:35;;;;;;;1999.90;999.90;;;18.40;99.90;;;;;;6650518;88;20515;-75
2022/09/14 06:55:36;;;;;;;1999.90;999.90;;;18.50;99.90;;;;;;6660454;88;20195;-75
2022/09/14 07:05:36;;;;;;;1999.90;999.90;;;18.40;99.90;;;;;;6658821;89;20707;-75
2022/09/14 07:15:37;;;;;;;1999.90;999.90;;;18.40;99.90;;;;;;6651824;88;20208;-75
2022/09/14 07:25:37;;;;;;;1999.90;999.90;;;18.50;99.90;;;;;;6653109;88;20205;-75
2022/09/14 07:35:38;;;;;;;1999.90;999.90;;;18.50;99.90;;;;;;6659961;88;20237;-74
2022/09/14 07:45:38;;;;;;;1999.90;999.90;;;18.50;99.90;;;;;;6651920;88;20207;-74
2022/09/14 07:55:39;;;;;;;1999.90;999.90;;;18.40;99.90;;;;;;6650700;88;20268;-74
2022/09/14 08:05:40;;;;;;;1999.90;999.90;;;18.60;99.90;;;;;;6654529;88;20224;-75
2022/09/14 08:15:40;;;;;;;1999.90;999.90;;;18.70;99.90;;;;;;6670414;89;20311;-74
2022/09/14 08:25:41;;;;;;;1999.90;999.90;;;19.00;99.90;;;;;;6670553;89;20207;-75
2022/09/14 08:35:43;;;;;;;1999.90;999.90;;;18.90;99.90;;;;;;6677715;89;20283;-75
2022/09/14 08:45:44;;;;;;;1999.90;999.90;;;18.90;99.90;;;;;;6671592;88;20501;-75
2022/09/14 08:55:55;;;;;;;1999.90;999.90;;;18.80;99.90;;;;;;6664977;88;20288;-75
2022/09/14 09:06:07;;;;;;;1999.90;999.90;;;19.00;99.90;;;;;;6666787;88;20226;-76
2022/09/14 09:16:09;;;;;;;1999.90;999.90;;;19.00;99.90;;;;;;6668793;89;20195;-76
2022/09/14 09:26:37;;;;;;;1999.90;999.90;;;18.90;99.90;;;;;;6670807;88;21098;-76
2022/09/14 09:36:40;;;;;;;1999.90;999.90;;;19.20;99.90;;;;;;6677540;89;20209;-77
2022/09/14 09:46:58;;;;;;;1999.90;999.90;;;19.10;99.90;;;;;;6674598;89;20195;-76
2022/09/14 09:57:03;;;;;;;1999.90;999.90;;;18.80;99.90;;;;;;6677056;89;20195;-77
2022/09/14 10:07:04;;;;;;;1999.90;999.90;;;18.60;99.90;;;;;;6668070;89;20212;-76
2022/09/14 10:17:20;;;;;;;1999.90;999.90;;;18.90;99.90;;;;;;6661759;89;20697;-77
2022/09/14 10:27:44;;;;;;;1999.90;999.90;;;18.90;99.90;;;;;;6655437;89;20231;-77
2022/09/14 10:37:59;;;;;;;1999.90;999.90;;;19.00;99.90;;;;;;6659951;89;20811;-77
2022/09/14 10:48:06;;;;;;;1999.90;999.90;;;18.90;99.90;;;;;;6661856;88;20209;-76
2022/09/14 10:58:23;;;;;;;1999.90;999.90;;;18.80;99.90;;;;;;6663349;89;20183;-76
2022/09/14 11:08:33;;;;;;;1999.90;999.90;;;18.70;99.90;;;;;;6667253;88;20299;-77
2022/09/14 11:18:37;;;;;;;1999.90;999.90;;;18.40;99.90;;;;;;6731908;78;20651;-78
2022/09/14 11:28:48;;;;;;;1999.90;999.90;;;18.30;99.90;;;;;;6729192;88;20219;-78
2022/09/14 11:38:58;;;;;;;1999.90;999.90;;;18.40;99.90;;;;;;6724648;88;20285;-78
2022/09/14 11:49:17;;;;;;;1999.90;999.90;;;18.50;99.90;;;;;;6726217;88;20184;-78
2022/09/14 11:59:40;;;;;;;1999.90;999.90;;;18.50;99.90;;;;;;6726305;88;20173;-79
2022/09/14 12:09:42;;;;;;;1999.90;999.90;;;18.60;99.90;;;;;;6725866;88;20292;-78
2022/09/14 12:19:45;;;;;;;1999.90;999.90;;;18.80;99.90;;;;;;6722369;88;20225;-77
2022/09/14 12:29:46;;;;;;;1999.90;999.90;;;19.00;99.90;;;;;;6722008;88;20244;-78
2022/09/14 12:40:22;;;;;;;1999.90;999.90;;;19.10;99.90;;;;;;6727938;88;20246;-78
2022/09/14 12:50:28;;;;;;;1999.90;999.90;;;19.40;99.90;;;;;;6724401;88;20661;-78
2022/09/14 13:00:44;;;;;;;1999.90;999.90;;;19.20;99.90;;;;;;6725584;88;20178;-78
2022/09/14 13:10:47;;;;;;;1999.90;999.90;;;18.90;99.90;;;;;;6733051;88;20193;-79
2022/09/14 13:20:53;;;;;;;1999.90;999.90;;;18.70;99.90;;;;;;6734399;88;20180;-79
2022/09/14 13:31:00;;;;;;;1999.90;999.90;;;18.70;99.90;;;;;;6725481;88;20302;-77
2022/09/14 13:41:09;;;;;;;1999.90;999.90;;;18.60;99.90;;;;;;6728092;88;20242;-78
2022/09/14 13:51:12;;;;;;;1999.90;999.90;;;18.60;99.90;;;;;;6724494;88;20204;-78
2022/09/14 14:01:26;;;;;;;1999.90;999.90;;;18.50;99.90;;;;;;6726510;88;20239;-79
2022/09/14 14:11:51;;;;;;;1999.90;999.90;;;18.50;99.90;;;;;;6721494;88;20280;-78
2022/09/14 14:22:10;;;;;;;1999.90;999.90;;;18.50;99.90;;;;;;6731428;88;20465;-78
2022/09/14 14:32:10;;;;;;;1999.90;999.90;;;18.50;99.90;;;;;;6731382;88;20174;-78
2022/09/14 14:42:13;;;;;;;1999.90;999.90;;;18.30;99.90;;;;;;6726631;88;20207;-78
2022/09/14 14:52:14;;;;;;;1999.90;999.90;;;18.10;99.90;;;;;;6731194;88;20850;-78
2022/09/14 15:02:14;;;;;;;1999.90;999.90;;;17.90;99.90;;;;;;6727374;88;20212;-78
2022/09/14 15:12:15;;;;;;;1999.90;999.90;;;17.60;99.90;;;;;;6730542;88;20305;-78
2022/09/14 15:22:15;;;;;;;1999.90;999.90;;;17.40;99.90;;;;;;6729697;88;20233;-77
2022/09/14 15:32:16;;;;;;;1999.90;999.90;;;17.40;99.90;;;;;;6728700;88;20209;-78
2022/09/14 15:42:17;;;;;;;1999.90;999.90;;;17.30;99.90;;;;;;6729997;88;20194;-77
2022/09/14 15:52:18;;;;;;;1999.90;999.90;;;17.30;99.90;;;;;;6729772;88;20311;-77
2022/09/14 16:02:19;;;;;;;1999.90;999.90;;;17.30;99.90;;;;;;6728334;88;20279;-77
2022/09/14 16:12:20;;;;;;;1999.90;999.90;;;17.30;99.90;;;;;;6721162;88;20191;-78
2022/09/14 16:22:20;;;;;;;1999.90;999.90;;;17.30;99.90;;;;;;6708870;88;20183;-78
2022/09/14 16:32:21;;;;;;;1999.90;999.90;;;17.20;99.90;;;;;;6706531;88;20292;-77
2022/09/14 16:42:21;;;;;;;1999.90;999.90;;;17.10;99.90;;;;;;6704553;88;20190;-78
2022/09/14 16:52:22;;;;;;;1999.90;999.90;;;17.10;99.90;;;;;;6707927;88;20244;-78
2022/09/14 17:02:22;;;;;;;1999.90;999.90;;;17.10;99.90;;;;;;6711839;88;20268;-78
2022/09/14 17:12:23;;;;;;;1999.90;999.90;;;17.00;99.90;;;;;;6710352;88;20194;-78
2022/09/14 17:22:24;;;;;;;1999.90;999.90;;;16.80;99.90;;;;;;6769377;77;20194;-80
2022/09/14 17:32:24;;;;;;;1999.90;999.90;;;16.80;99.90;;;;;;6758825;87;20815;-78
2022/09/14 17:42:25;;;;;;;1999.90;999.90;;;16.80;99.90;;;;;;6746888;88;20220;-77
2022/09/14 17:52:26;;;;;;;1999.90;999.90;;;16.70;99.90;;;;;;6753816;88;20644;-78
2022/09/14 18:02:26;;;;;;;1999.90;999.90;;;16.70;99.90;;;;;;6761537;88;20200;-78
2022/09/14 18:12:31;;;;;;;1999.90;999.90;;;16.70;99.90;;;;;;6763722;87;20209;-77
2022/09/14 18:22:31;;;;;;;1999.90;999.90;;;16.40;99.90;;;;;;6756244;88;20245;-76
2022/09/14 18:32:33;;;;;;;1999.90;999.90;;;16.50;99.90;;;;;;6758238;88;20185;-78
2022/09/14 18:42:33;;;;;;;1999.90;999.90;;;16.40;99.90;;;;;;6758696;87;20958;-78
2022/09/14 18:52:34;;;;;;;1999.90;999.90;;;16.40;99.90;;;;;;6751878;87;20290;-79
2022/09/14 19:02:35;;;;;;;1999.90;999.90;;;16.50;99.90;;;;;;6758522;87;20244;-77
2022/09/14 19:12:35;;;;;;;1999.90;999.90;;;16.40;99.90;;;;;;6750940;87;20200;-79
2022/09/14 19:22:36;;;;;;;1999.90;999.90;;;16.40;99.90;;;;;;6754715;87;20176;-78
2022/09/14 19:32:36;;;;;;;1999.90;999.90;;;16.30;99.90;;;;;;6764835;88;20171;-79
2022/09/14 19:42:37;;;;;;;1999.90;999.90;;;16.30;99.90;;;;;;6764614;88;20374;-78
2022/09/14 19:52:38;;;;;;;1999.90;999.90;;;16.20;99.90;;;;;;6754442;88;20219;-79
2022/09/14 20:02:38;;;;;;;1999.90;999.90;;;16.30;99.90;;;;;;6745529;88;20215;-79
2022/09/14 20:12:39;;;;;;;1999.90;999.90;;;16.20;99.90;;;;;;6767293;88;20219;-79
2022/09/14 20:22:40;;;;;;;1999.90;999.90;;;16.00;99.90;;;;;;6758183;88;20263;-77
2022/09/14 20:32:40;;;;;;;1999.90;999.90;;;16.10;99.90;;;;;;6756441;88;20252;-79
2022/09/14 20:42:41;;;;;;;1999.90;999.90;;;16.00;99.90;;;;;;6755129;88;20184;-76
2022/09/14 20:52:42;;;;;;;1999.90;999.90;;;15.80;99.90;;;;;;6755539;87;20177;-76
2022/09/14 21:02:42;;;;;;;1999.90;999.90;;;15.90;99.90;;;;;;6758695;87;20205;-77
2022/09/14 21:12:43;;;;;;;1999.90;999.90;;;15.80;99.90;;;;;;6752115;87;20285;-77
2022/09/14 21:22:44;;;;;;;1999.90;999.90;;;15.80;99.90;;;;;;6752708;88;20184;-77
2022/09/14 21:32:47;;;;;;;1999.90;999.90;;;15.70;99.90;;;;;;6754984;87;20169;-78
2022/09/14 21:42:47;;;;;;;1999.90;999.90;;;15.70;99.90;;;;;;6760950;88;20637;-77
2022/09/14 21:52:48;;;;;;;1999.90;999.90;;;15.60;99.90;;;;;;6756251;87;20224;-78
2022/09/14 22:02:48;;;;;;;1999.90;999.90;;;15.70;99.90;;;;;;6755343;88;20173;-78
2022/09/14 22:12:49;;;;;;;1999.90;999.90;;;15.50;99.90;;;;;;6754033;88;20233;-78
2022/09/14 22:22:49;;;;;;;1999.90;999.90;;;15.50;99.90;;;;;;6754853;87;20219;-76
2022/09/14 22:32:50;;;;;;;1999.90;999.90;;;15.40;99.90;;;;;;6754049;88;20640;-77
2022/09/14 22:42:51;;;;;;;1999.90;999.90;;;15.30;99.90;;;;;;6756432;88;20620;-78
2022/09/14 22:52:52;;;;;;;1999.90;999.90;;;15.30;99.90;;;;;;6752055;88;20198;-77
2022/09/14 23:02:53;;;;;;;1999.90;999.90;;;15.20;99.90;;;;;;6756968;88;20213;-78
2022/09/14 23:12:54;;;;;;;1999.90;999.90;;;15.10;99.90;;;;;;6758934;88;20344;-77
2022/09/14 23:22:54;;;;;;;1999.90;999.90;;;15.10;99.90;;;;;;6752516;88;20281;-76
2022/09/14 23:32:55;;;;;;;1999.90;999.90;;;15.10;99.90;;;;;;6750482;87;20246;-77
2022/09/14 23:42:56;;;;;;;1999.90;999.90;;;15.00;99.90;;;;;;6749462;88;20172;-77
2022/09/14 23:52:56;;;;;;;1999.90;999.90;;;15.00;99.90;;;;;;6749284;87;20375;-77
